createdAt,value
2018-06-04T00:02:37.688Z,75.74
2018-06-04T00:05:43.239Z,75.78
2018-06-04T00:08:48.025Z,75.32
2018-06-04T00:11:52.354Z,75.44
2018-06-04T00:14:56.794Z,75.72
2018-06-04T00:18:01.061Z,75.59
2018-06-04T00:21:05.336Z,75.09
2018-06-04T00:24:09.696Z,75.50
2018-06-04T00:27:13.978Z,76.06
2018-06-04T00:30:18.430Z,76.42
2018-06-04T00:33:22.741Z,76.11
2018-06-04T00:36:27.233Z,75.49
2018-06-04T00:39:31.485Z,75.39
2018-06-04T00:42:35.623Z,75.92
2018-06-04T00:45:39.983Z,75.55
2018-06-04T00:48:44.413Z,75.69
2018-06-04T00:51:48.853Z,76.05
2018-06-04T00:54:53.108Z,75.87
2018-06-04T00:57:57.633Z,76.23
2018-06-04T01:01:02.409Z,76.22
2018-06-04T01:04:06.697Z,75.71
2018-06-04T01:07:11.671Z,77.83
2018-06-04T01:10:16.038Z,79.89
2018-06-04T01:13:20.299Z,80.88
2018-06-04T01:16:24.570Z,79.80
2018-06-04T01:19:28.841Z,78.53
2018-06-04T01:22:33.337Z,78.81
2018-06-04T01:25:37.614Z,78.86
2018-06-04T01:28:41.873Z,78.85
2018-06-04T01:31:46.128Z,78.12
2018-06-04T01:34:51.005Z,78.09
2018-06-04T01:37:55.273Z,78.39
2018-06-04T01:40:59.599Z,77.90
2018-06-04T01:44:04.773Z,77.79
2018-06-04T01:47:09.388Z,78.41
2018-06-04T01:50:13.650Z,77.70
2018-06-04T01:53:17.906Z,76.93
2018-06-04T01:56:22.628Z,76.91
2018-06-04T01:59:27.338Z,78.40
2018-06-04T02:02:31.640Z,79.50
2018-06-04T02:05:35.894Z,79.13
2018-06-04T02:08:40.169Z,79.11
2018-06-04T02:11:52.594Z,78.39
2018-06-04T02:14:56.843Z,78.81
2018-06-04T02:18:01.118Z,79.09
2018-06-04T02:21:05.389Z,78.85
2018-06-04T02:24:09.655Z,78.21
2018-06-04T02:27:13.905Z,77.64
2018-06-04T02:30:18.162Z,77.45
2018-06-04T02:33:22.441Z,78.66
2018-06-04T02:36:26.711Z,78.46
2018-06-04T02:39:30.990Z,78.31
2018-06-04T02:42:35.259Z,78.38
2018-06-04T02:45:39.555Z,78.37
2018-06-04T02:48:43.852Z,78.54
2018-06-04T02:51:48.130Z,78.42
2018-06-04T02:54:52.394Z,78.71
2018-06-04T02:57:56.681Z,78.90
2018-06-04T03:01:00.993Z,78.60
2018-06-04T03:04:05.669Z,78.57
2018-06-04T03:07:09.755Z,79.06
2018-06-04T03:10:14.092Z,79.44
2018-06-04T03:13:18.381Z,78.42
2018-06-04T03:16:23.346Z,77.91
2018-06-04T03:19:27.909Z,77.92
2018-06-04T03:22:32.239Z,77.50
2018-06-04T03:25:36.537Z,78.33
2018-06-04T03:28:40.961Z,78.31
2018-06-04T03:31:45.404Z,78.07
2018-06-04T03:34:49.719Z,78.26
2018-06-04T03:37:54.048Z,77.71
2018-06-04T03:40:58.393Z,77.94
2018-06-04T03:44:02.686Z,78.19
2018-06-04T03:47:07.324Z,78.14
2018-06-04T03:50:11.597Z,78.27
2018-06-04T03:53:15.901Z,78.98
2018-06-04T03:56:20.900Z,80.90
2018-06-04T03:59:25.530Z,81.91
2018-06-04T04:02:29.830Z,81.88
2018-06-04T04:05:34.797Z,80.12
2018-06-04T04:08:39.327Z,79.67
2018-06-04T04:11:43.607Z,78.74
2018-06-04T04:14:48.397Z,78.42
2018-06-04T04:17:52.682Z,77.76
2018-06-04T04:20:56.954Z,76.78
2018-06-04T04:24:02.070Z,76.37
2018-06-04T04:27:06.706Z,75.44
2018-06-04T04:30:11.267Z,75.74
2018-06-04T04:33:15.603Z,75.87
2018-06-04T04:36:19.958Z,75.46
2018-06-04T04:39:24.306Z,75.35
2018-06-04T04:42:28.653Z,75.06
2018-06-04T04:45:35.026Z,75.31
2018-06-04T04:48:39.398Z,74.56
2018-06-04T04:51:43.678Z,74.66
2018-06-04T04:54:48.273Z,74.68
2018-06-04T04:57:53.217Z,73.95
2018-06-04T05:00:57.726Z,72.96
2018-06-04T05:04:01.991Z,72.53
2018-06-04T05:07:06.938Z,73.16
2018-06-04T05:10:11.482Z,72.83
2018-06-04T05:13:15.789Z,72.35
2018-06-04T05:16:20.053Z,71.70
2018-06-04T05:19:24.373Z,71.26
2018-06-04T05:22:28.775Z,71.11
2018-06-04T05:25:33.140Z,71.94
2018-06-04T05:28:37.454Z,71.52
2018-06-04T05:31:41.935Z,71.09
2018-06-04T05:34:46.223Z,70.71
2018-06-04T05:37:50.627Z,70.07
2018-06-04T05:40:55.848Z,69.95
2018-06-04T05:44:00.156Z,69.58
2018-06-04T05:47:04.479Z,70.07
2018-06-04T05:50:08.893Z,69.74
2018-06-04T05:53:13.194Z,68.37
2018-06-04T05:56:17.792Z,67.30
2018-06-04T05:59:22.087Z,64.38
2018-06-04T06:02:26.476Z,59.74
2018-06-04T06:05:30.822Z,58.42
2018-06-04T06:08:35.144Z,56.24
2018-06-04T06:11:39.623Z,53.35
2018-06-04T06:14:44.275Z,56.18
2018-06-04T06:17:49.406Z,54.60
2018-06-04T06:20:54.017Z,54.57
2018-06-04T06:23:58.340Z,55.12
2018-06-04T06:27:03.949Z,51.24
2018-06-04T06:30:08.688Z,55.20
2018-06-04T06:33:13.080Z,51.18
2018-06-04T06:36:17.424Z,52.17
2018-06-04T06:39:21.830Z,49.03
2018-06-04T06:42:26.387Z,47.59
2018-06-04T06:45:31.411Z,47.43
2018-06-04T06:48:35.760Z,47.33
2018-06-04T06:51:40.199Z,47.70
2018-06-04T06:54:44.760Z,49.16
2018-06-04T06:57:49.146Z,45.46
2018-06-04T07:00:53.871Z,43.63
2018-06-04T07:03:58.276Z,42.59
2018-06-04T07:07:02.809Z,47.57
2018-06-04T07:10:07.520Z,48.69
2018-06-04T07:13:12.010Z,46.77
2018-06-04T07:16:16.379Z,49.77
2018-06-04T07:19:20.656Z,48.11
2018-06-04T07:22:25.015Z,49.45
2018-06-04T07:25:29.825Z,51.54
2018-06-04T07:28:34.159Z,52.33
2018-06-04T07:31:38.427Z,52.71
2018-06-04T07:34:42.795Z,49.48
2018-06-04T07:37:47.168Z,50.40
2018-06-04T07:40:51.605Z,47.33
2018-06-04T07:43:55.954Z,46.69
2018-06-04T07:47:00.378Z,49.47
2018-06-04T07:50:04.729Z,51.10
2018-06-04T07:53:09.170Z,49.47
2018-06-04T07:56:13.461Z,47.13
2018-06-04T07:59:17.757Z,46.78
2018-06-04T08:02:22.329Z,46.45
2018-06-04T08:05:26.743Z,47.58
2018-06-04T08:08:31.236Z,48.69
2018-06-04T08:11:35.517Z,47.80
2018-06-04T08:14:39.886Z,49.09
2018-06-04T08:17:43.957Z,48.08
2018-06-04T08:20:48.258Z,48.32
2018-06-04T08:23:52.645Z,47.72
2018-06-04T08:26:57.382Z,50.16
2018-06-04T08:30:01.643Z,47.19
2018-06-04T08:33:06.271Z,47.89
2018-06-04T08:36:10.610Z,47.50
2018-06-04T08:39:14.870Z,46.40
2018-06-04T08:42:19.142Z,46.54
2018-06-04T08:45:25.095Z,46.21
2018-06-04T08:48:29.734Z,48.67
2018-06-04T08:51:34.137Z,45.54
2018-06-04T08:54:38.470Z,45.42
2018-06-04T08:57:43.641Z,44.20
2018-06-04T09:00:48.337Z,45.32
2018-06-04T09:03:53.104Z,46.47
2018-06-04T09:06:59.132Z,43.82
2018-06-04T09:10:03.531Z,43.33
2018-06-04T09:13:07.870Z,43.93
2018-06-04T09:16:12.422Z,42.54
2018-06-04T09:19:16.947Z,42.98
2018-06-04T09:22:21.390Z,43.23
2018-06-04T09:25:26.070Z,41.85
2018-06-04T09:28:31.196Z,43.23
2018-06-04T09:39:15.060Z,41.06
2018-06-04T09:42:19.369Z,41.85
2018-06-04T09:45:24.045Z,42.24
2018-06-04T09:48:28.883Z,39.91
2018-06-04T09:51:33.515Z,42.01
2018-06-04T09:54:38.023Z,41.90
2018-06-04T09:57:43.451Z,39.25
2018-06-04T10:00:47.866Z,41.32
2018-06-04T10:03:52.821Z,40.97
2018-06-04T10:07:29.483Z,42.29
2018-06-04T10:10:36.139Z,41.74
2018-06-04T10:13:41.459Z,42.96
2018-06-04T10:16:45.933Z,42.82
2018-06-04T10:19:50.577Z,38.40
2018-06-04T10:23:31.701Z,39.79
2018-06-04T10:27:09.149Z,37.16
2018-06-04T10:30:14.529Z,38.87
2018-06-04T10:33:18.813Z,39.06
2018-06-04T10:36:23.250Z,37.97
2018-06-04T10:39:27.538Z,37.68
2018-06-04T10:42:32.489Z,37.27
2018-06-04T10:45:36.785Z,36.38
2018-06-04T10:48:41.179Z,37.51
2018-06-04T10:51:45.866Z,38.88
2018-06-04T10:54:50.127Z,38.41
2018-06-04T10:57:54.436Z,37.51
2018-06-04T11:00:58.696Z,37.21
2018-06-04T11:04:02.990Z,37.64
2018-06-04T11:07:07.528Z,38.56
2018-06-04T11:10:11.799Z,38.58
2018-06-04T11:13:16.430Z,37.59
2018-06-04T11:16:21.023Z,36.45
2018-06-04T11:19:25.821Z,37.36
2018-06-04T11:22:30.194Z,35.22
2018-06-04T11:25:35.650Z,37.22
2018-06-04T11:28:39.899Z,37.65
2018-06-04T11:31:44.547Z,35.34
2018-06-04T11:34:48.549Z,36.67
2018-06-04T11:37:52.850Z,37.30
2018-06-04T11:40:57.112Z,36.98
2018-06-04T11:44:01.861Z,36.73
2018-06-04T11:47:06.536Z,36.38
2018-06-04T11:50:11.190Z,35.27
2018-06-04T11:53:15.375Z,35.52
2018-06-04T11:56:19.874Z,37.33
2018-06-04T11:59:24.197Z,36.54
2018-06-04T12:02:28.608Z,34.30
2018-06-04T12:05:33.179Z,34.76
2018-06-04T12:08:37.453Z,33.94
2018-06-04T12:11:42.086Z,35.02
2018-06-04T12:14:46.433Z,34.40
2018-06-04T12:17:50.793Z,34.87
2018-06-04T12:20:55.118Z,34.19
2018-06-04T12:23:59.566Z,33.85
2018-06-04T12:27:03.973Z,32.68
2018-06-04T12:30:08.312Z,34.81
2018-06-04T12:33:12.611Z,34.67
2018-06-04T12:36:17.058Z,34.97
2018-06-04T12:39:21.385Z,34.42
2018-06-04T12:42:25.934Z,33.80
2018-06-04T12:45:30.326Z,32.89
2018-06-04T12:48:34.605Z,33.62
2018-06-04T12:51:38.982Z,33.55
2018-06-04T12:54:43.281Z,32.68
2018-06-04T12:57:47.610Z,33.17
2018-06-04T13:00:51.934Z,33.34
2018-06-04T13:03:56.266Z,33.11
2018-06-04T13:07:00.534Z,33.80
2018-06-04T13:10:04.882Z,32.85
2018-06-04T13:13:10.329Z,33.53
2018-06-04T13:16:14.645Z,34.25
2018-06-04T13:19:19.428Z,34.65
2018-06-04T13:22:23.916Z,34.85
2018-06-04T13:25:28.626Z,34.60
2018-06-04T13:28:33.203Z,33.62
2018-06-04T13:31:37.602Z,35.06
2018-06-04T13:34:42.271Z,34.21
2018-06-04T13:37:46.891Z,32.33
2018-06-04T13:40:51.325Z,33.18
2018-06-04T13:43:58.025Z,33.46
2018-06-04T13:47:03.754Z,34.47
2018-06-04T13:50:08.503Z,32.50
2018-06-04T13:53:39.438Z,33.22
2018-06-04T13:56:43.850Z,34.17
2018-06-04T13:59:48.729Z,33.73
2018-06-04T14:02:53.291Z,32.62
2018-06-04T14:05:57.602Z,33.51
2018-06-04T14:09:01.962Z,34.41
2018-06-04T14:12:08.686Z,33.82
2018-06-04T14:15:13.085Z,33.24
2018-06-04T14:18:18.102Z,33.96
2018-06-04T14:21:22.406Z,33.28
2018-06-04T14:24:26.761Z,33.21
2018-06-04T14:27:31.181Z,32.93
2018-06-04T14:30:35.952Z,31.97
2018-06-04T14:33:40.828Z,32.19
2018-06-04T14:36:45.388Z,32.72
2018-06-04T14:39:49.995Z,32.91
2018-06-04T14:42:55.189Z,33.42
2018-06-04T14:46:00.573Z,33.31
2018-06-04T14:49:05.338Z,32.51
2018-06-04T14:52:10.027Z,33.32
2018-06-04T14:55:14.706Z,32.57
2018-06-04T14:58:19.078Z,31.87
2018-06-04T15:01:23.389Z,31.61
2018-06-04T15:04:27.901Z,31.76
2018-06-04T15:07:32.481Z,32.34
2018-06-04T15:10:37.354Z,32.27
2018-06-04T15:13:42.021Z,32.00
2018-06-04T15:16:46.507Z,32.72
2018-06-04T15:19:51.448Z,31.57
2018-06-04T15:22:56.037Z,31.61
2018-06-04T15:26:00.706Z,31.77
2018-06-04T15:29:05.523Z,31.51
2018-06-04T15:32:10.679Z,30.56
2018-06-04T15:35:15.307Z,31.85
2018-06-04T15:38:19.888Z,33.09
2018-06-04T15:41:24.463Z,31.66
2018-06-04T15:44:28.853Z,31.95
2018-06-04T15:47:33.318Z,31.34
2018-06-04T15:50:38.465Z,30.24
2018-06-04T15:53:43.187Z,30.41
2018-06-04T15:56:48.975Z,30.30
2018-06-04T15:59:53.621Z,30.81
2018-06-04T16:02:58.042Z,31.69
2018-06-04T16:06:02.368Z,32.66
2018-06-04T16:09:08.385Z,31.72
2018-06-04T16:12:12.745Z,32.02
2018-06-04T16:15:17.269Z,30.96
2018-06-04T16:18:21.624Z,30.59
2018-06-04T16:21:27.488Z,30.08
2018-06-04T16:24:31.781Z,31.73
2018-06-04T16:27:36.312Z,31.45
2018-06-04T16:30:40.642Z,30.88
2018-06-04T16:33:45.066Z,29.90
2018-06-04T16:36:49.481Z,30.40
2018-06-04T16:39:53.925Z,30.91
2018-06-04T16:42:58.726Z,29.20
2018-06-04T16:46:03.158Z,26.82
2018-06-04T16:49:07.617Z,24.36
2018-06-04T16:52:12.024Z,23.41
2018-06-04T16:55:16.456Z,23.40
2018-06-04T16:58:20.869Z,26.38
2018-06-04T17:01:25.293Z,26.73
2018-06-04T17:04:29.737Z,28.08
2018-06-04T17:07:34.202Z,28.74
2018-06-04T17:10:38.538Z,29.79
2018-06-04T17:13:43.166Z,30.14
2018-06-04T17:16:47.560Z,29.88
2018-06-04T17:19:52.001Z,30.61
2018-06-04T17:22:56.240Z,30.85
2018-06-04T17:26:00.566Z,31.33
2018-06-04T17:29:04.884Z,29.66
2018-06-04T17:32:09.209Z,28.80
2018-06-04T17:35:14.774Z,29.78
2018-06-04T17:38:19.226Z,31.96
2018-06-04T17:41:23.627Z,31.12
2018-06-04T17:44:28.030Z,31.94
2018-06-04T17:47:32.608Z,31.04
2018-06-04T17:50:37.660Z,31.60
2018-06-04T17:53:42.125Z,31.61
2018-06-04T17:56:46.473Z,32.45
2018-06-04T17:59:51.114Z,32.33
2018-06-04T18:02:56.290Z,33.31
2018-06-04T18:06:00.797Z,33.43
2018-06-04T18:09:08.743Z,34.19
2018-06-04T18:12:13.243Z,34.91
2018-06-04T18:15:18.012Z,34.59
2018-06-04T18:18:22.569Z,34.54
2018-06-04T18:21:28.146Z,35.30
2018-06-04T18:24:33.677Z,36.00
2018-06-04T18:27:38.163Z,36.91
2018-06-04T18:30:43.546Z,37.39
2018-06-04T18:33:48.355Z,38.40
2018-06-04T18:36:52.814Z,39.08
2018-06-04T18:39:57.197Z,38.95
2018-06-04T18:43:01.701Z,39.39
2018-06-04T18:46:06.193Z,40.30
2018-06-04T18:49:10.808Z,40.44
2018-06-04T18:52:15.741Z,40.91
2018-06-04T18:55:20.180Z,41.35
2018-06-04T18:58:25.315Z,41.96
2018-06-04T19:01:31.717Z,42.56
2018-06-04T19:04:36.175Z,42.64
2018-06-04T19:07:40.613Z,42.84
2018-06-04T19:10:45.241Z,43.19
2018-06-04T19:13:49.693Z,43.55
2018-06-04T19:16:54.573Z,44.55
2018-06-04T19:19:59.761Z,45.22
2018-06-04T19:23:04.219Z,45.75
2018-06-04T19:26:08.663Z,45.96
2018-06-04T19:29:13.104Z,46.62
2018-06-04T19:32:18.176Z,46.57
2018-06-04T19:35:22.660Z,47.28
2018-06-04T19:38:28.081Z,47.87
2018-06-04T19:41:32.509Z,48.78
2018-06-04T19:44:36.879Z,48.78
2018-06-04T19:47:41.590Z,49.62
2018-06-04T19:50:52.679Z,49.31
2018-06-04T19:53:56.971Z,50.02
2018-06-04T19:57:01.327Z,50.49
2018-06-04T20:00:06.543Z,51.18
2018-06-04T20:03:12.730Z,50.98
2018-06-04T20:06:17.678Z,51.02
2018-06-04T20:09:22.792Z,52.83
2018-06-04T20:12:27.381Z,51.88
2018-06-04T20:15:31.768Z,52.24
2018-06-04T20:18:45.019Z,53.07
2018-06-04T20:21:50.763Z,52.42
2018-06-04T20:25:03.143Z,53.13
2018-06-04T20:28:07.913Z,53.42
2018-06-04T20:31:12.358Z,53.58
2018-06-04T20:34:16.677Z,54.02
2018-06-04T20:37:21.130Z,54.02
2018-06-04T20:40:26.075Z,54.90
2018-06-04T20:43:30.542Z,55.05
2018-06-04T20:46:35.108Z,55.93
2018-06-04T20:49:39.504Z,56.01
2018-06-04T20:52:44.283Z,56.49
2018-06-04T20:55:48.508Z,57.28
2018-06-04T20:58:52.938Z,57.65
2018-06-04T21:01:57.283Z,57.61
2018-06-04T21:05:03.254Z,58.14
2018-06-04T21:08:07.874Z,57.39
2018-06-04T21:11:12.181Z,58.39
2018-06-04T21:14:16.881Z,58.68
2018-06-04T21:17:21.338Z,60.01
2018-06-04T21:20:25.836Z,59.38
2018-06-04T21:23:30.231Z,60.02
2018-06-04T21:26:34.826Z,60.09
2018-06-04T21:29:39.205Z,61.26
2018-06-04T21:32:43.495Z,60.20
2018-06-04T21:35:48.752Z,60.01
2018-06-04T21:38:53.038Z,61.75
2018-06-04T21:41:57.855Z,62.44
2018-06-04T21:45:04.655Z,62.13
2018-06-04T21:48:09.786Z,62.51
2018-06-04T21:51:14.060Z,63.40
2018-06-04T21:54:18.374Z,63.69
2018-06-04T21:57:22.682Z,63.04
2018-06-04T22:00:27.046Z,63.70
2018-06-04T22:03:31.484Z,62.80
2018-06-04T22:06:35.786Z,63.18
2018-06-04T22:09:40.106Z,63.65
2018-06-04T22:12:44.390Z,63.23
2018-06-04T22:15:48.624Z,63.74
2018-06-04T22:18:53.366Z,65.10
2018-06-04T22:21:57.774Z,64.07
2018-06-04T22:25:02.418Z,64.96
2018-06-04T22:28:06.685Z,64.11
2018-06-04T22:31:11.175Z,63.32
2018-06-04T22:34:15.499Z,63.36
2018-06-04T22:37:19.780Z,63.87
2018-06-04T22:40:24.050Z,64.57
2018-06-04T22:43:28.370Z,64.44
2018-06-04T22:46:32.786Z,65.56
2018-06-04T22:49:37.129Z,64.63
2018-06-04T22:52:41.498Z,65.33
2018-06-04T22:55:45.771Z,64.91
2018-06-04T22:58:50.067Z,64.23
2018-06-04T23:01:54.454Z,64.26
2018-06-04T23:04:58.749Z,64.29
2018-06-04T23:08:03.033Z,65.68
2018-06-04T23:11:07.313Z,64.42
2018-06-04T23:14:11.381Z,65.28
2018-06-04T23:17:15.771Z,64.71
2018-06-04T23:20:20.050Z,65.24
2018-06-04T23:23:24.667Z,66.35
2018-06-04T23:26:29.382Z,66.32
2018-06-04T23:29:33.874Z,66.54
2018-06-04T23:32:38.449Z,66.37
2018-06-04T23:35:42.745Z,66.46
2018-06-04T23:38:47.407Z,65.91
2018-06-04T23:41:52.346Z,66.52
2018-06-04T23:44:56.643Z,68.31
2018-06-04T23:48:00.920Z,68.40
2018-06-04T23:51:05.441Z,68.06
2018-06-04T23:54:09.722Z,68.66
2018-06-04T23:57:14.133Z,68.23
